Aviation Digital Data Service (ADDS)

Output produced by METARs form (1815 UTC 19 April 2019)
found at http://www.aviationweather.gov/metar/data/
 
METAR text: EHEH 191755Z AUTO 05011KT 020V080 9999 NCD 23/04 Q1027 BLU 06007KT CAVOK
Conditions at: EHEH (EINDHOVEN RNLAFB, NL) observed 1755 UTC 19 April 2019
Temperature: 23.0°C (73°F)
Dewpoint: 4.0°C (39°F) [RH = 29%]
Pressure (altimeter): 30.32 inches Hg (1027.0 mb)
Winds: from the NE (50 degrees) at 13 MPH (11 knots; 5.7 m/s)
Visibility: 6 or more miles (10+ km)
Ceiling: at least 12,000 feet AGL
Clouds: sky clear below 12,000 feet AGL
Weather: no significant weather observed at this time

METAR text: EHEH 191725Z AUTO 06007KT 360V080 9999 NCD 24/04 Q1026 BLU 06007KT CAVOK
Conditions at: EHEH (EINDHOVEN RNLAFB, NL) observed 1725 UTC 19 April 2019
Temperature: 24.0°C (75°F)
Dewpoint: 4.0°C (39°F) [RH = 27%]
Pressure (altimeter): 30.30 inches Hg (1026.0 mb)
Winds: from the ENE (60 degrees) at 8 MPH (7 knots; 3.6 m/s)
Visibility: 6 or more miles (10+ km)
Ceiling: at least 12,000 feet AGL
Clouds: sky clear below 12,000 feet AGL
Weather: no significant weather observed at this time

METAR text: EHEH 191655Z AUTO 08007KT 050V180 9999 NCD 24/01 Q1026 BLU 08009KT CAVOK
Conditions at: EHEH (EINDHOVEN RNLAFB, NL) observed 1655 UTC 19 April 2019
Temperature: 24.0°C (75°F)
Dewpoint: 1.0°C (34°F) [RH = 22%]
Pressure (altimeter): 30.30 inches Hg (1026.0 mb)
Winds: from the E (80 degrees) at 8 MPH (7 knots; 3.6 m/s)
Visibility: 6 or more miles (10+ km)
Ceiling: at least 12,000 feet AGL
Clouds: sky clear below 12,000 feet AGL
Weather: no significant weather observed at this time

METAR text: EHEH 191625Z AUTO 07007KT 050V150 9999 NCD 24/01 Q1026 BLU 08009KT CAVOK
Conditions at: EHEH (EINDHOVEN RNLAFB, NL) observed 1625 UTC 19 April 2019
Temperature: 24.0°C (75°F)
Dewpoint: 1.0°C (34°F) [RH = 22%]
Pressure (altimeter): 30.30 inches Hg (1026.0 mb)
Winds: from the ENE (70 degrees) at 8 MPH (7 knots; 3.6 m/s)
Visibility: 6 or more miles (10+ km)
Ceiling: at least 12,000 feet AGL
Clouds: sky clear below 12,000 feet AGL
Weather: no significant weather observed at this time

METAR text: EHEH 191555Z AUTO 05009KT 030V120 9999 NCD 25/03 Q1026 BLU 08009KT CAVOK
Conditions at: EHEH (EINDHOVEN RNLAFB, NL) observed 1555 UTC 19 April 2019
Temperature: 25.0°C (77°F)
Dewpoint: 3.0°C (37°F) [RH = 24%]
Pressure (altimeter): 30.30 inches Hg (1026.0 mb)
Winds: from the NE (50 degrees) at 10 MPH (9 knots; 4.6 m/s)
Visibility: 6 or more miles (10+ km)
Ceiling: at least 12,000 feet AGL
Clouds: sky clear below 12,000 feet AGL
Weather: no significant weather observed at this time

METAR text: EHEH 191525Z AUTO 06009KT 010V150 9999 NCD 25/03 Q1026 BLU 08009KT CAVOK
Conditions at: EHEH (EINDHOVEN RNLAFB, NL) observed 1525 UTC 19 April 2019
Temperature: 25.0°C (77°F)
Dewpoint: 3.0°C (37°F) [RH = 24%]
Pressure (altimeter): 30.30 inches Hg (1026.0 mb)
Winds: from the ENE (60 degrees) at 10 MPH (9 knots; 4.6 m/s)
Visibility: 6 or more miles (10+ km)
Ceiling: at least 12,000 feet AGL
Clouds: sky clear below 12,000 feet AGL
Weather: no significant weather observed at this time

METAR text: EHEH 191455Z AUTO 08007KT 360V120 9999 NCD 25/03 Q1027 BLU 08009KT CAVOK
Conditions at: EHEH (EINDHOVEN RNLAFB, NL) observed 1455 UTC 19 April 2019
Temperature: 25.0°C (77°F)
Dewpoint: 3.0°C (37°F) [RH = 24%]
Pressure (altimeter): 30.32 inches Hg (1027.0 mb)
Winds: from the E (80 degrees) at 8 MPH (7 knots; 3.6 m/s)
Visibility: 6 or more miles (10+ km)
Ceiling: at least 12,000 feet AGL
Clouds: sky clear below 12,000 feet AGL
Weather: no significant weather observed at this time

METAR text: EHEH 191425Z AUTO VRB08KT 9999 NCD 24/03 Q1027 BLU 08009KT CAVOK
Conditions at: EHEH (EINDHOVEN RNLAFB, NL) observed 1425 UTC 19 April 2019
Temperature: 24.0°C (75°F)
Dewpoint: 3.0°C (37°F) [RH = 25%]
Pressure (altimeter): 30.32 inches Hg (1027.0 mb)
Winds: variable direction winds at 9 MPH (8 knots; 4.1 m/s)
Visibility: 6 or more miles (10+ km)
Ceiling: at least 12,000 feet AGL
Clouds: sky clear below 12,000 feet AGL
Weather: no significant weather observed at this time

METAR text: EHEH 191355Z AUTO 06009KT 030V160 9999 NCD 25/03 Q1027 BLU 08009KT CAVOK
Conditions at: EHEH (EINDHOVEN RNLAFB, NL) observed 1355 UTC 19 April 2019
Temperature: 25.0°C (77°F)
Dewpoint: 3.0°C (37°F) [RH = 24%]
Pressure (altimeter): 30.32 inches Hg (1027.0 mb)
Winds: from the ENE (60 degrees) at 10 MPH (9 knots; 4.6 m/s)
Visibility: 6 or more miles (10+ km)
Ceiling: at least 12,000 feet AGL
Clouds: sky clear below 12,000 feet AGL
Weather: no significant weather observed at this time

METAR text: EHEH 191325Z AUTO 06008KT 030V150 9999 NCD 25/03 Q1027 BLU 08009KT CAVOK
Conditions at: EHEH (EINDHOVEN RNLAFB, NL) observed 1325 UTC 19 April 2019
Temperature: 25.0°C (77°F)
Dewpoint: 3.0°C (37°F) [RH = 24%]
Pressure (altimeter): 30.32 inches Hg (1027.0 mb)
Winds: from the ENE (60 degrees) at 9 MPH (8 knots; 4.1 m/s)
Visibility: 6 or more miles (10+ km)
Ceiling: at least 12,000 feet AGL
Clouds: sky clear below 12,000 feet AGL
Weather: no significant weather observed at this time

METAR text: EHEH 191255Z AUTO 08009KT 040V150 9999 NCD 24/03 Q1027 BLU 08009KT CAVOK
Conditions at: EHEH (EINDHOVEN RNLAFB, NL) observed 1255 UTC 19 April 2019
Temperature: 24.0°C (75°F)
Dewpoint: 3.0°C (37°F) [RH = 25%]
Pressure (altimeter): 30.32 inches Hg (1027.0 mb)
Winds: from the E (80 degrees) at 10 MPH (9 knots; 4.6 m/s)
Visibility: 6 or more miles (10+ km)
Ceiling: at least 12,000 feet AGL
Clouds: sky clear below 12,000 feet AGL
Weather: no significant weather observed at this time

METAR text: EHEH 191225Z AUTO 12009KT 020V180 9999 NCD 24/02 Q1027 BLU 08009KT CAVOK
Conditions at: EHEH (EINDHOVEN RNLAFB, NL) observed 1225 UTC 19 April 2019
Temperature: 24.0°C (75°F)
Dewpoint: 2.0°C (36°F) [RH = 24%]
Pressure (altimeter): 30.32 inches Hg (1027.0 mb)
Winds: from the ESE (120 degrees) at 10 MPH (9 knots; 4.6 m/s)
Visibility: 6 or more miles (10+ km)
Ceiling: at least 12,000 feet AGL
Clouds: sky clear below 12,000 feet AGL
Weather: no significant weather observed at this time

METAR text: EHEH 191155Z AUTO 10008KT 030V150 9999 NCD 24/03 Q1027 BLU 08009KT CAVOK
Conditions at: EHEH (EINDHOVEN RNLAFB, NL) observed 1155 UTC 19 April 2019
Temperature: 24.0°C (75°F)
Dewpoint: 3.0°C (37°F) [RH = 25%]
Pressure (altimeter): 30.32 inches Hg (1027.0 mb)
Winds: from the E (100 degrees) at 9 MPH (8 knots; 4.1 m/s)
Visibility: 6 or more miles (10+ km)
Ceiling: at least 12,000 feet AGL
Clouds: sky clear below 12,000 feet AGL
Weather: no significant weather observed at this time

METAR text: EHEH 191125Z AUTO 08008KT 020V120 9999 NCD 23/04 Q1027 BLU 08008KT CAVOK
Conditions at: EHEH (EINDHOVEN RNLAFB, NL) observed 1125 UTC 19 April 2019
Temperature: 23.0°C (73°F)
Dewpoint: 4.0°C (39°F) [RH = 29%]
Pressure (altimeter): 30.32 inches Hg (1027.0 mb)
Winds: from the E (80 degrees) at 9 MPH (8 knots; 4.1 m/s)
Visibility: 6 or more miles (10+ km)
Ceiling: at least 12,000 feet AGL
Clouds: sky clear below 12,000 feet AGL
Weather: no significant weather observed at this time

METAR text: EHEH 191055Z AUTO 10008KT 010V120 9999 NCD 22/05 Q1027 BLU 08008KT CAVOK
Conditions at: EHEH (EINDHOVEN RNLAFB, NL) observed 1055 UTC 19 April 2019
Temperature: 22.0°C (72°F)
Dewpoint: 5.0°C (41°F) [RH = 33%]
Pressure (altimeter): 30.32 inches Hg (1027.0 mb)
Winds: from the E (100 degrees) at 9 MPH (8 knots; 4.1 m/s)
Visibility: 6 or more miles (10+ km)
Ceiling: at least 12,000 feet AGL
Clouds: sky clear below 12,000 feet AGL
Weather: no significant weather observed at this time

METAR text: EHEH 191025Z AUTO 07008KT 040V140 9999 NCD 22/05 Q1027 BLU 07007KT CAVOK
Conditions at: EHEH (EINDHOVEN RNLAFB, NL) observed 1025 UTC 19 April 2019
Temperature: 22.0°C (72°F)
Dewpoint: 5.0°C (41°F) [RH = 33%]
Pressure (altimeter): 30.32 inches Hg (1027.0 mb)
Winds: from the ENE (70 degrees) at 9 MPH (8 knots; 4.1 m/s)
Visibility: 6 or more miles (10+ km)
Ceiling: at least 12,000 feet AGL
Clouds: sky clear below 12,000 feet AGL
Weather: no significant weather observed at this time

METAR text: EHEH 190955Z AUTO 06007KT 020V140 9999 NCD 21/05 Q1028 BLU 07007KT CAVOK
Conditions at: EHEH (EINDHOVEN RNLAFB, NL) observed 0955 UTC 19 April 2019
Temperature: 21.0°C (70°F)
Dewpoint: 5.0°C (41°F) [RH = 35%]
Pressure (altimeter): 30.35 inches Hg (1028.0 mb)
Winds: from the ENE (60 degrees) at 8 MPH (7 knots; 3.6 m/s)
Visibility: 6 or more miles (10+ km)
Ceiling: at least 12,000 feet AGL
Clouds: sky clear below 12,000 feet AGL
Weather: no significant weather observed at this time

METAR text: EHEH 190925Z AUTO 10006KT 070V160 9999 NCD 20/05 Q1028 BLU 08008KT CAVOK
Conditions at: EHEH (EINDHOVEN RNLAFB, NL) observed 0925 UTC 19 April 2019
Temperature: 20.0°C (68°F)
Dewpoint: 5.0°C (41°F) [RH = 37%]
Pressure (altimeter): 30.35 inches Hg (1028.0 mb)
Winds: from the E (100 degrees) at 7 MPH (6 knots; 3.1 m/s)
Visibility: 6 or more miles (10+ km)
Ceiling: at least 12,000 feet AGL
Clouds: sky clear below 12,000 feet AGL
Weather: no significant weather observed at this time

METAR text: EHEH 190855Z AUTO 09008KT 050V120 9999 BKN260 19/04 Q1028 BLU 08008KT CAVOK
Conditions at: EHEH (EINDHOVEN RNLAFB, NL) observed 0855 UTC 19 April 2019
Temperature: 19.0°C (66°F)
Dewpoint: 4.0°C (39°F) [RH = 37%]
Pressure (altimeter): 30.35 inches Hg (1028.0 mb)
Winds: from the E (90 degrees) at 9 MPH (8 knots; 4.1 m/s)
Visibility: 6 or more miles (10+ km)
Ceiling: 26000 feet AGL
Clouds: broken clouds at 26000 feet AGL
Weather: no significant weather observed at this time

METAR text: EHEH 190825Z AUTO 08007KT 050V130 9999 NCD 18/04 Q1028 BLU 08008KT CAVOK
Conditions at: EHEH (EINDHOVEN RNLAFB, NL) observed 0825 UTC 19 April 2019
Temperature: 18.0°C (64°F)
Dewpoint: 4.0°C (39°F) [RH = 39%]
Pressure (altimeter): 30.35 inches Hg (1028.0 mb)
Winds: from the E (80 degrees) at 8 MPH (7 knots; 3.6 m/s)
Visibility: 6 or more miles (10+ km)
Ceiling: at least 12,000 feet AGL
Clouds: sky clear below 12,000 feet AGL
Weather: no significant weather observed at this time

METAR text: EHEH 190755Z AUTO 09009KT 050V120 9999 NCD 16/04 Q1028 BLU 08008KT CAVOK
Conditions at: EHEH (EINDHOVEN RNLAFB, NL) observed 0755 UTC 19 April 2019
Temperature: 16.0°C (61°F)
Dewpoint: 4.0°C (39°F) [RH = 45%]
Pressure (altimeter): 30.35 inches Hg (1028.0 mb)
Winds: from the E (90 degrees) at 10 MPH (9 knots; 4.6 m/s)
Visibility: 6 or more miles (10+ km)
Ceiling: at least 12,000 feet AGL
Clouds: sky clear below 12,000 feet AGL
Weather: no significant weather observed at this time

METAR text: EHEH 190725Z AUTO 07007KT 040V100 9999 NCD 16/04 Q1028 BLU 08008KT CAVOK
Conditions at: EHEH (EINDHOVEN RNLAFB, NL) observed 0725 UTC 19 April 2019
Temperature: 16.0°C (61°F)
Dewpoint: 4.0°C (39°F) [RH = 45%]
Pressure (altimeter): 30.35 inches Hg (1028.0 mb)
Winds: from the ENE (70 degrees) at 8 MPH (7 knots; 3.6 m/s)
Visibility: 6 or more miles (10+ km)
Ceiling: at least 12,000 feet AGL
Clouds: sky clear below 12,000 feet AGL
Weather: no significant weather observed at this time

METAR text: EHEH 190655Z AUTO 07007KT 9999 NCD 14/03 Q1027 BLU 07007KT CAVOK
Conditions at: EHEH (EINDHOVEN RNLAFB, NL) observed 0655 UTC 19 April 2019
Temperature: 14.0°C (57°F)
Dewpoint: 3.0°C (37°F) [RH = 47%]
Pressure (altimeter): 30.32 inches Hg (1027.0 mb)
Winds: from the ENE (70 degrees) at 8 MPH (7 knots; 3.6 m/s)
Visibility: 6 or more miles (10+ km)
Ceiling: at least 12,000 feet AGL
Clouds: sky clear below 12,000 feet AGL
Weather: no significant weather observed at this time

METAR text: EHEH 190625Z AUTO 07006KT 030V100 9999 NCD 13/03 Q1027 BLU 06006KT CAVOK
Conditions at: EHEH (EINDHOVEN RNLAFB, NL) observed 0625 UTC 19 April 2019
Temperature: 13.0°C (55°F)
Dewpoint: 3.0°C (37°F) [RH = 51%]
Pressure (altimeter): 30.32 inches Hg (1027.0 mb)
Winds: from the ENE (70 degrees) at 7 MPH (6 knots; 3.1 m/s)
Visibility: 6 or more miles (10+ km)
Ceiling: at least 12,000 feet AGL
Clouds: sky clear below 12,000 feet AGL
Weather: no significant weather observed at this time

METAR text: EHEH 190555Z AUTO 07006KT 9999 NCD 12/03 Q1027 BLU 06006KT CAVOK
Conditions at: EHEH (EINDHOVEN RNLAFB, NL) observed 0555 UTC 19 April 2019
Temperature: 12.0°C (54°F)
Dewpoint: 3.0°C (37°F) [RH = 54%]
Pressure (altimeter): 30.32 inches Hg (1027.0 mb)
Winds: from the ENE (70 degrees) at 7 MPH (6 knots; 3.1 m/s)
Visibility: 6 or more miles (10+ km)
Ceiling: at least 12,000 feet AGL
Clouds: sky clear below 12,000 feet AGL
Weather: no significant weather observed at this time

METAR text: EHEH 190525Z AUTO 06006KT 020V080 9999 NCD 11/03 Q1027 BLU 06006KT CAVOK
Conditions at: EHEH (EINDHOVEN RNLAFB, NL) observed 0525 UTC 19 April 2019
Temperature: 11.0°C (52°F)
Dewpoint: 3.0°C (37°F) [RH = 58%]
Pressure (altimeter): 30.32 inches Hg (1027.0 mb)
Winds: from the ENE (60 degrees) at 7 MPH (6 knots; 3.1 m/s)
Visibility: 6 or more miles (10+ km)
Ceiling: at least 12,000 feet AGL
Clouds: sky clear below 12,000 feet AGL
Weather: no significant weather observed at this time

METAR text: EHEH 190455Z AUTO 06006KT 9999 NCD 11/03 Q1027 BLU 06006KT CAVOK
Conditions at: EHEH (EINDHOVEN RNLAFB, NL) observed 0455 UTC 19 April 2019
Temperature: 11.0°C (52°F)
Dewpoint: 3.0°C (37°F) [RH = 58%]
Pressure (altimeter): 30.32 inches Hg (1027.0 mb)
Winds: from the ENE (60 degrees) at 7 MPH (6 knots; 3.1 m/s)
Visibility: 6 or more miles (10+ km)
Ceiling: at least 12,000 feet AGL
Clouds: sky clear below 12,000 feet AGL
Weather: no significant weather observed at this time

METAR text: EHEH 190425Z AUTO 05006KT 9999 NCD 09/03 Q1027 BLU 06006KT CAVOK
Conditions at: EHEH (EINDHOVEN RNLAFB, NL) observed 0425 UTC 19 April 2019
Temperature: 9.0°C (48°F)
Dewpoint: 3.0°C (37°F) [RH = 66%]
Pressure (altimeter): 30.32 inches Hg (1027.0 mb)
Winds: from the NE (50 degrees) at 7 MPH (6 knots; 3.1 m/s)
Visibility: 6 or more miles (10+ km)
Ceiling: at least 12,000 feet AGL
Clouds: sky clear below 12,000 feet AGL
Weather: no significant weather observed at this time

METAR text: EHEH 190355Z AUTO 06006KT 9999 NCD 10/03 Q1026 BLU
Conditions at: EHEH (EINDHOVEN RNLAFB, NL) observed 0355 UTC 19 April 2019
Temperature: 10.0°C (50°F)
Dewpoint: 3.0°C (37°F) [RH = 62%]
Pressure (altimeter): 30.30 inches Hg (1026.0 mb)
Winds: from the ENE (60 degrees) at 7 MPH (6 knots; 3.1 m/s)
Visibility: 6 or more miles (10+ km)
Ceiling: at least 12,000 feet AGL
Clouds: sky clear below 12,000 feet AGL
Weather: no significant weather observed at this time

METAR text: EHEH 190325Z AUTO 06006KT 9999 NCD 11/03 Q1026 BLU
Conditions at: EHEH (EINDHOVEN RNLAFB, NL) observed 0325 UTC 19 April 2019
Temperature: 11.0°C (52°F)
Dewpoint: 3.0°C (37°F) [RH = 58%]
Pressure (altimeter): 30.30 inches Hg (1026.0 mb)
Winds: from the ENE (60 degrees) at 7 MPH (6 knots; 3.1 m/s)
Visibility: 6 or more miles (10+ km)
Ceiling: at least 12,000 feet AGL
Clouds: sky clear below 12,000 feet AGL
Weather: no significant weather observed at this time

METAR text: EHEH 190255Z AUTO 06006KT 9999 NCD 10/03 Q1026 BLU
Conditions at: EHEH (EINDHOVEN RNLAFB, NL) observed 0255 UTC 19 April 2019
Temperature: 10.0°C (50°F)
Dewpoint: 3.0°C (37°F) [RH = 62%]
Pressure (altimeter): 30.30 inches Hg (1026.0 mb)
Winds: from the ENE (60 degrees) at 7 MPH (6 knots; 3.1 m/s)
Visibility: 6 or more miles (10+ km)
Ceiling: at least 12,000 feet AGL
Clouds: sky clear below 12,000 feet AGL
Weather: no significant weather observed at this time

METAR text: EHEH 190225Z AUTO 05005KT 9999 NCD 09/03 Q1026 BLU
Conditions at: EHEH (EINDHOVEN RNLAFB, NL) observed 0225 UTC 19 April 2019
Temperature: 9.0°C (48°F)
Dewpoint: 3.0°C (37°F) [RH = 66%]
Pressure (altimeter): 30.30 inches Hg (1026.0 mb)
Winds: from the NE (50 degrees) at 6 MPH (5 knots; 2.6 m/s)
Visibility: 6 or more miles (10+ km)
Ceiling: at least 12,000 feet AGL
Clouds: sky clear below 12,000 feet AGL
Weather: no significant weather observed at this time

METAR text: EHEH 190155Z AUTO 03006KT 9999 NCD 09/03 Q1026 BLU
Conditions at: EHEH (EINDHOVEN RNLAFB, NL) observed 0155 UTC 19 April 2019
Temperature: 9.0°C (48°F)
Dewpoint: 3.0°C (37°F) [RH = 66%]
Pressure (altimeter): 30.30 inches Hg (1026.0 mb)
Winds: from the NNE (30 degrees) at 7 MPH (6 knots; 3.1 m/s)
Visibility: 6 or more miles (10+ km)
Ceiling: at least 12,000 feet AGL
Clouds: sky clear below 12,000 feet AGL
Weather: no significant weather observed at this time

METAR text: EHEH 190125Z AUTO 03005KT 9999 NCD 10/03 Q1026 BLU
Conditions at: EHEH (EINDHOVEN RNLAFB, NL) observed 0125 UTC 19 April 2019
Temperature: 10.0°C (50°F)
Dewpoint: 3.0°C (37°F) [RH = 62%]
Pressure (altimeter): 30.30 inches Hg (1026.0 mb)
Winds: from the NNE (30 degrees) at 6 MPH (5 knots; 2.6 m/s)
Visibility: 6 or more miles (10+ km)
Ceiling: at least 12,000 feet AGL
Clouds: sky clear below 12,000 feet AGL
Weather: no significant weather observed at this time

METAR text: EHEH 190055Z AUTO 07006KT 9999 NCD 14/03 Q1026 BLU
Conditions at: EHEH (EINDHOVEN RNLAFB, NL) observed 0055 UTC 19 April 2019
Temperature: 14.0°C (57°F)
Dewpoint: 3.0°C (37°F) [RH = 47%]
Pressure (altimeter): 30.30 inches Hg (1026.0 mb)
Winds: from the ENE (70 degrees) at 7 MPH (6 knots; 3.1 m/s)
Visibility: 6 or more miles (10+ km)
Ceiling: at least 12,000 feet AGL
Clouds: sky clear below 12,000 feet AGL
Weather: no significant weather observed at this time

METAR text: EHEH 190025Z AUTO 08006KT 050V110 9999 NCD 15/03 Q1026 BLU
Conditions at: EHEH (EINDHOVEN RNLAFB, NL) observed 0025 UTC 19 April 2019
Temperature: 15.0°C (59°F)
Dewpoint: 3.0°C (37°F) [RH = 44%]
Pressure (altimeter): 30.30 inches Hg (1026.0 mb)
Winds: from the E (80 degrees) at 7 MPH (6 knots; 3.1 m/s)
Visibility: 6 or more miles (10+ km)
Ceiling: at least 12,000 feet AGL
Clouds: sky clear below 12,000 feet AGL
Weather: no significant weather observed at this time

METAR text: EHEH 182355Z AUTO 08006KT 9999 NCD 15/03 Q1026 BLU
Conditions at: EHEH (EINDHOVEN RNLAFB, NL) observed 2355 UTC 18 April 2019
Temperature: 15.0°C (59°F)
Dewpoint: 3.0°C (37°F) [RH = 44%]
Pressure (altimeter): 30.30 inches Hg (1026.0 mb)
Winds: from the E (80 degrees) at 7 MPH (6 knots; 3.1 m/s)
Visibility: 6 or more miles (10+ km)
Ceiling: at least 12,000 feet AGL
Clouds: sky clear below 12,000 feet AGL
Weather: no significant weather observed at this time

METAR text: EHEH 182325Z AUTO 07006KT 9999 NCD 15/03 Q1026 BLU
Conditions at: EHEH (EINDHOVEN RNLAFB, NL) observed 2325 UTC 18 April 2019
Temperature: 15.0°C (59°F)
Dewpoint: 3.0°C (37°F) [RH = 44%]
Pressure (altimeter): 30.30 inches Hg (1026.0 mb)
Winds: from the ENE (70 degrees) at 7 MPH (6 knots; 3.1 m/s)
Visibility: 6 or more miles (10+ km)
Ceiling: at least 12,000 feet AGL
Clouds: sky clear below 12,000 feet AGL
Weather: no significant weather observed at this time

METAR text: EHEH 182255Z AUTO 06006KT 020V080 9999 NCD 15/03 Q1026 BLU
Conditions at: EHEH (EINDHOVEN RNLAFB, NL) observed 2255 UTC 18 April 2019
Temperature: 15.0°C (59°F)
Dewpoint: 3.0°C (37°F) [RH = 44%]
Pressure (altimeter): 30.30 inches Hg (1026.0 mb)
Winds: from the ENE (60 degrees) at 7 MPH (6 knots; 3.1 m/s)
Visibility: 6 or more miles (10+ km)
Ceiling: at least 12,000 feet AGL
Clouds: sky clear below 12,000 feet AGL
Weather: no significant weather observed at this time

METAR text: EHEH 182225Z AUTO 06006KT 9999 NCD 15/03 Q1025 BLU
Conditions at: EHEH (EINDHOVEN RNLAFB, NL) observed 2225 UTC 18 April 2019
Temperature: 15.0°C (59°F)
Dewpoint: 3.0°C (37°F) [RH = 44%]
Pressure (altimeter): 30.27 inches Hg (1025.0 mb)
Winds: from the ENE (60 degrees) at 7 MPH (6 knots; 3.1 m/s)
Visibility: 6 or more miles (10+ km)
Ceiling: at least 12,000 feet AGL
Clouds: sky clear below 12,000 feet AGL
Weather: no significant weather observed at this time

METAR text: EHEH 182155Z AUTO 07008KT 9999 OVC240 17/02 Q1025 BLU
Conditions at: EHEH (EINDHOVEN RNLAFB, NL) observed 2155 UTC 18 April 2019
Temperature: 17.0°C (63°F)
Dewpoint: 2.0°C (36°F) [RH = 36%]
Pressure (altimeter): 30.27 inches Hg (1025.0 mb)
Winds: from the ENE (70 degrees) at 9 MPH (8 knots; 4.1 m/s)
Visibility: 6 or more miles (10+ km)
Ceiling: 24000 feet AGL
Clouds: overcast cloud deck at 24000 feet AGL
Weather: no significant weather observed at this time

METAR text: EHEH 182144Z AUTO 07008KT 030V100 9999 OVC240 17/02 Q1025 BLU
Conditions at: EHEH (EINDHOVEN RNLAFB, NL) observed 2144 UTC 18 April 2019
Temperature: 17.0°C (63°F)
Dewpoint: 2.0°C (36°F) [RH = 36%]
Pressure (altimeter): 30.27 inches Hg (1025.0 mb)
Winds: from the ENE (70 degrees) at 9 MPH (8 knots; 4.1 m/s)
Visibility: 6 or more miles (10+ km)
Ceiling: 24000 feet AGL
Clouds: overcast cloud deck at 24000 feet AGL
Weather: no significant weather observed at this time

METAR text: EHEH 182125Z AUTO 07010KT 040V100 9999 OVC230 18/02 Q1025 BLU 06008KT CAVOK
Conditions at: EHEH (EINDHOVEN RNLAFB, NL) observed 2125 UTC 18 April 2019
Temperature: 18.0°C (64°F)
Dewpoint: 2.0°C (36°F) [RH = 34%]
Pressure (altimeter): 30.27 inches Hg (1025.0 mb)
Winds: from the ENE (70 degrees) at 12 MPH (10 knots; 5.1 m/s)
Visibility: 6 or more miles (10+ km)
Ceiling: 23000 feet AGL
Clouds: overcast cloud deck at 23000 feet AGL
Weather: no significant weather observed at this time

METAR text: EHEH 182055Z AUTO 07009KT 040V100 9999 OVC230 18/02 Q1025 BLU 06008KT CAVOK
Conditions at: EHEH (EINDHOVEN RNLAFB, NL) observed 2055 UTC 18 April 2019
Temperature: 18.0°C (64°F)
Dewpoint: 2.0°C (36°F) [RH = 34%]
Pressure (altimeter): 30.27 inches Hg (1025.0 mb)
Winds: from the ENE (70 degrees) at 10 MPH (9 knots; 4.6 m/s)
Visibility: 6 or more miles (10+ km)
Ceiling: 23000 feet AGL
Clouds: overcast cloud deck at 23000 feet AGL
Weather: no significant weather observed at this time

METAR text: EHEH 182025Z AUTO 07010KT 030V100 9999 OVC250 18/02 Q1025 BLU 06008KT CAVOK
Conditions at: EHEH (EINDHOVEN RNLAFB, NL) observed 2025 UTC 18 April 2019
Temperature: 18.0°C (64°F)
Dewpoint: 2.0°C (36°F) [RH = 34%]
Pressure (altimeter): 30.27 inches Hg (1025.0 mb)
Winds: from the ENE (70 degrees) at 12 MPH (10 knots; 5.1 m/s)
Visibility: 6 or more miles (10+ km)
Ceiling: 25000 feet AGL
Clouds: overcast cloud deck at 25000 feet AGL
Weather: no significant weather observed at this time

METAR text: EHEH 181955Z AUTO 06010KT 030V090 9999 BKN240 18/02 Q1024 BLU 06010KT CAVOK
Conditions at: EHEH (EINDHOVEN RNLAFB, NL) observed 1955 UTC 18 April 2019
Temperature: 18.0°C (64°F)
Dewpoint: 2.0°C (36°F) [RH = 34%]
Pressure (altimeter): 30.24 inches Hg (1024.0 mb)
Winds: from the ENE (60 degrees) at 12 MPH (10 knots; 5.1 m/s)
Visibility: 6 or more miles (10+ km)
Ceiling: 24000 feet AGL
Clouds: broken clouds at 24000 feet AGL
Weather: no significant weather observed at this time

METAR text: EHEH 181925Z AUTO 06011KT 040V100 9999 NCD 19/02 Q1024 BLU 06010KT CAVOK
Conditions at: EHEH (EINDHOVEN RNLAFB, NL) observed 1925 UTC 18 April 2019
Temperature: 19.0°C (66°F)
Dewpoint: 2.0°C (36°F) [RH = 32%]
Pressure (altimeter): 30.24 inches Hg (1024.0 mb)
Winds: from the ENE (60 degrees) at 13 MPH (11 knots; 5.7 m/s)
Visibility: 6 or more miles (10+ km)
Ceiling: at least 12,000 feet AGL
Clouds: sky clear below 12,000 feet AGL
Weather: no significant weather observed at this time

METAR text: EHEH 181855Z AUTO 06011KT 020V100 9999 NCD 19/03 Q1024 BLU 06010KT CAVOK
Conditions at: EHEH (EINDHOVEN RNLAFB, NL) observed 1855 UTC 18 April 2019
Temperature: 19.0°C (66°F)
Dewpoint: 3.0°C (37°F) [RH = 34%]
Pressure (altimeter): 30.24 inches Hg (1024.0 mb)
Winds: from the ENE (60 degrees) at 13 MPH (11 knots; 5.7 m/s)
Visibility: 6 or more miles (10+ km)
Ceiling: at least 12,000 feet AGL
Clouds: sky clear below 12,000 feet AGL
Weather: no significant weather observed at this time

METAR text: EHEH 181825Z AUTO 07011KT 020V100 9999 NCD 20/03 Q1023 BLU 06010KT CAVOK
Conditions at: EHEH (EINDHOVEN RNLAFB, NL) observed 1825 UTC 18 April 2019
Temperature: 20.0°C (68°F)
Dewpoint: 3.0°C (37°F) [RH = 32%]
Pressure (altimeter): 30.21 inches Hg (1023.0 mb)
Winds: from the ENE (70 degrees) at 13 MPH (11 knots; 5.7 m/s)
Visibility: 6 or more miles (10+ km)
Ceiling: at least 12,000 feet AGL
Clouds: sky clear below 12,000 feet AGL
Weather: no significant weather observed at this time

METAR text: EHEH 181755Z AUTO 06012KT 360V100 9999 NCD 21/03 Q1023 BLU 09010G22KT CAVOK
Conditions at: EHEH (EINDHOVEN RNLAFB, NL) observed 1755 UTC 18 April 2019
Temperature: 21.0°C (70°F)
Dewpoint: 3.0°C (37°F) [RH = 30%]
Pressure (altimeter): 30.21 inches Hg (1023.0 mb)
Winds: from the ENE (60 degrees) at 14 MPH (12 knots; 6.2 m/s)
Visibility: 6 or more miles (10+ km)
Ceiling: at least 12,000 feet AGL
Clouds: sky clear below 12,000 feet AGL
Weather: no significant weather observed at this time

METAR text: EHEH 181725Z AUTO 07013KT 030V100 9999 NCD 22/03 Q1023 BLU 09010G22KT CAVOK
Conditions at: EHEH (EINDHOVEN RNLAFB, NL) observed 1725 UTC 18 April 2019
Temperature: 22.0°C (72°F)
Dewpoint: 3.0°C (37°F) [RH = 29%]
Pressure (altimeter): 30.21 inches Hg (1023.0 mb)
Winds: from the ENE (70 degrees) at 15 MPH (13 knots; 6.7 m/s)
Visibility: 6 or more miles (10+ km)
Ceiling: at least 12,000 feet AGL
Clouds: sky clear below 12,000 feet AGL
Weather: no significant weather observed at this time

METAR text: EHEH 181655Z AUTO 06012KT 010V080 9999 NCD 22/03 Q1023 BLU 09010G22KT CAVOK
Conditions at: EHEH (EINDHOVEN RNLAFB, NL) observed 1655 UTC 18 April 2019
Temperature: 22.0°C (72°F)
Dewpoint: 3.0°C (37°F) [RH = 29%]
Pressure (altimeter): 30.21 inches Hg (1023.0 mb)
Winds: from the ENE (60 degrees) at 14 MPH (12 knots; 6.2 m/s)
Visibility: 6 or more miles (10+ km)
Ceiling: at least 12,000 feet AGL
Clouds: sky clear below 12,000 feet AGL
Weather: no significant weather observed at this time

METAR text: EHEH 181625Z AUTO 07010KT 010V090 9999 FEW280 22/03 Q1023 BLU 09010G22KT CAVOK
Conditions at: EHEH (EINDHOVEN RNLAFB, NL) observed 1625 UTC 18 April 2019
Temperature: 22.0°C (72°F)
Dewpoint: 3.0°C (37°F) [RH = 29%]
Pressure (altimeter): 30.21 inches Hg (1023.0 mb)
Winds: from the ENE (70 degrees) at 12 MPH (10 knots; 5.1 m/s)
Visibility: 6 or more miles (10+ km)
Ceiling: at least 12,000 feet AGL
Clouds: few clouds at 28000 feet AGL
Weather: no significant weather observed at this time

METAR text: EHEH 181555Z AUTO 07013KT 050V150 9999 SCT270 23/02 Q1023 BLU 09010G22KT CAVOK
Conditions at: EHEH (EINDHOVEN RNLAFB, NL) observed 1555 UTC 18 April 2019
Temperature: 23.0°C (73°F)
Dewpoint: 2.0°C (36°F) [RH = 25%]
Pressure (altimeter): 30.21 inches Hg (1023.0 mb)
Winds: from the ENE (70 degrees) at 15 MPH (13 knots; 6.7 m/s)
Visibility: 6 or more miles (10+ km)
Ceiling: at least 12,000 feet AGL
Clouds: scattered clouds at 27000 feet AGL
Weather: no significant weather observed at this time

METAR text: EHEH 181525Z AUTO 08008KT 030V110 9999 NCD 23/03 Q1023 BLU 09010G22KT CAVOK
Conditions at: EHEH (EINDHOVEN RNLAFB, NL) observed 1525 UTC 18 April 2019
Temperature: 23.0°C (73°F)
Dewpoint: 3.0°C (37°F) [RH = 27%]
Pressure (altimeter): 30.21 inches Hg (1023.0 mb)
Winds: from the E (80 degrees) at 9 MPH (8 knots; 4.1 m/s)
Visibility: 6 or more miles (10+ km)
Ceiling: at least 12,000 feet AGL
Clouds: sky clear below 12,000 feet AGL
Weather: no significant weather observed at this time

METAR text: EHEH 181455Z AUTO 07012KT 010V110 9999 NCD 23/04 Q1023 BLU 09010G22KT CAVOK
Conditions at: EHEH (EINDHOVEN RNLAFB, NL) observed 1455 UTC 18 April 2019
Temperature: 23.0°C (73°F)
Dewpoint: 4.0°C (39°F) [RH = 29%]
Pressure (altimeter): 30.21 inches Hg (1023.0 mb)
Winds: from the ENE (70 degrees) at 14 MPH (12 knots; 6.2 m/s)
Visibility: 6 or more miles (10+ km)
Ceiling: at least 12,000 feet AGL
Clouds: sky clear below 12,000 feet AGL
Weather: no significant weather observed at this time

METAR text: EHEH 181425Z AUTO 10010G20KT 350V150 9999 NCD 22/04 Q1023 BLU 09010G22KT CAVOK
Conditions at: EHEH (EINDHOVEN RNLAFB, NL) observed 1425 UTC 18 April 2019
Temperature: 22.0°C (72°F)
Dewpoint: 4.0°C (39°F) [RH = 31%]
Pressure (altimeter): 30.21 inches Hg (1023.0 mb)
Winds: from the E (100 degrees) at 12 MPH (10 knots; 5.1 m/s)
gusting to 23 MPH (20 knots; 10.3 m/s)
Visibility: 6 or more miles (10+ km)
Ceiling: at least 12,000 feet AGL
Clouds: sky clear below 12,000 feet AGL
Weather: no significant weather observed at this time

METAR text: EHEH 181355Z AUTO 08013KT 010V120 9999 NCD 22/04 Q1023 BLU 09010G22KT CAVOK
Conditions at: EHEH (EINDHOVEN RNLAFB, NL) observed 1355 UTC 18 April 2019
Temperature: 22.0°C (72°F)
Dewpoint: 4.0°C (39°F) [RH = 31%]
Pressure (altimeter): 30.21 inches Hg (1023.0 mb)
Winds: from the E (80 degrees) at 15 MPH (13 knots; 6.7 m/s)
Visibility: 6 or more miles (10+ km)
Ceiling: at least 12,000 feet AGL
Clouds: sky clear below 12,000 feet AGL
Weather: no significant weather observed at this time

METAR text: EHEH 181325Z AUTO 08012G22KT 050V150 9999 NCD 22/05 Q1023 BLU 09010G22KT CAVOK
Conditions at: EHEH (EINDHOVEN RNLAFB, NL) observed 1325 UTC 18 April 2019
Temperature: 22.0°C (72°F)
Dewpoint: 5.0°C (41°F) [RH = 33%]
Pressure (altimeter): 30.21 inches Hg (1023.0 mb)
Winds: from the E (80 degrees) at 14 MPH (12 knots; 6.2 m/s)
gusting to 25 MPH (22 knots; 11.3 m/s)
Visibility: 6 or more miles (10+ km)
Ceiling: at least 12,000 feet AGL
Clouds: sky clear below 12,000 feet AGL
Weather: no significant weather observed at this time

METAR text: EHEH 181255Z AUTO 08012KT 010V110 9999 NCD 21/05 Q1024 BLU 09010G22KT CAVOK
Conditions at: EHEH (EINDHOVEN RNLAFB, NL) observed 1255 UTC 18 April 2019
Temperature: 21.0°C (70°F)
Dewpoint: 5.0°C (41°F) [RH = 35%]
Pressure (altimeter): 30.24 inches Hg (1024.0 mb)
Winds: from the E (80 degrees) at 14 MPH (12 knots; 6.2 m/s)
Visibility: 6 or more miles (10+ km)
Ceiling: at least 12,000 feet AGL
Clouds: sky clear below 12,000 feet AGL
Weather: no significant weather observed at this time

METAR text: EHEH 181225Z AUTO 11011KT 060V160 9999 NCD 21/04 Q1024 BLU 09010G22KT CAVOK
Conditions at: EHEH (EINDHOVEN RNLAFB, NL) observed 1225 UTC 18 April 2019
Temperature: 21.0°C (70°F)
Dewpoint: 4.0°C (39°F) [RH = 33%]
Pressure (altimeter): 30.24 inches Hg (1024.0 mb)
Winds: from the ESE (110 degrees) at 13 MPH (11 knots; 5.7 m/s)
Visibility: 6 or more miles (10+ km)
Ceiling: at least 12,000 feet AGL
Clouds: sky clear below 12,000 feet AGL
Weather: no significant weather observed at this time

METAR text: EHEH 181155Z AUTO 11009KT 020V140 9999 NCD 21/04 Q1024 BLU 09010G22KT CAVOK
Conditions at: EHEH (EINDHOVEN RNLAFB, NL) observed 1155 UTC 18 April 2019
Temperature: 21.0°C (70°F)
Dewpoint: 4.0°C (39°F) [RH = 33%]
Pressure (altimeter): 30.24 inches Hg (1024.0 mb)
Winds: from the ESE (110 degrees) at 10 MPH (9 knots; 4.6 m/s)
Visibility: 6 or more miles (10+ km)
Ceiling: at least 12,000 feet AGL
Clouds: sky clear below 12,000 feet AGL
Weather: no significant weather observed at this time

METAR text: EHEH 181150Z AUTO 10009KT 020V140 9999 NCD 21/04 Q1024 BLU 09010G22KT CAVOK
Conditions at: EHEH (EINDHOVEN RNLAFB, NL) observed 1150 UTC 18 April 2019
Temperature: 21.0°C (70°F)
Dewpoint: 4.0°C (39°F) [RH = 33%]
Pressure (altimeter): 30.24 inches Hg (1024.0 mb)
Winds: from the E (100 degrees) at 10 MPH (9 knots; 4.6 m/s)
Visibility: 6 or more miles (10+ km)
Ceiling: at least 12,000 feet AGL
Clouds: sky clear below 12,000 feet AGL
Weather: no significant weather observed at this time

METAR text: EHEH 181125Z AUTO 07010KT 020V150 9999 NCD 21/05 Q1024 BLU 09012KT CAVOK
Conditions at: EHEH (EINDHOVEN RNLAFB, NL) observed 1125 UTC 18 April 2019
Temperature: 21.0°C (70°F)
Dewpoint: 5.0°C (41°F) [RH = 35%]
Pressure (altimeter): 30.24 inches Hg (1024.0 mb)
Winds: from the ENE (70 degrees) at 12 MPH (10 knots; 5.1 m/s)
Visibility: 6 or more miles (10+ km)
Ceiling: at least 12,000 feet AGL
Clouds: sky clear below 12,000 feet AGL
Weather: no significant weather observed at this time

METAR text: EHEH 181055Z AUTO 08010KT 050V120 9999 NCD 20/05 Q1024 BLU 09012KT CAVOK
Conditions at: EHEH (EINDHOVEN RNLAFB, NL) observed 1055 UTC 18 April 2019
Temperature: 20.0°C (68°F)
Dewpoint: 5.0°C (41°F) [RH = 37%]
Pressure (altimeter): 30.24 inches Hg (1024.0 mb)
Winds: from the E (80 degrees) at 12 MPH (10 knots; 5.1 m/s)
Visibility: 6 or more miles (10+ km)
Ceiling: at least 12,000 feet AGL
Clouds: sky clear below 12,000 feet AGL
Weather: no significant weather observed at this time

METAR text: EHEH 181025Z AUTO 07011KT 030V110 9999 NCD 19/05 Q1024 BLU 10010KT CAVOK
Conditions at: EHEH (EINDHOVEN RNLAFB, NL) observed 1025 UTC 18 April 2019
Temperature: 19.0°C (66°F)
Dewpoint: 5.0°C (41°F) [RH = 40%]
Pressure (altimeter): 30.24 inches Hg (1024.0 mb)
Winds: from the ENE (70 degrees) at 13 MPH (11 knots; 5.7 m/s)
Visibility: 6 or more miles (10+ km)
Ceiling: at least 12,000 feet AGL
Clouds: sky clear below 12,000 feet AGL
Weather: no significant weather observed at this time

METAR text: EHEH 180955Z AUTO 08010KT 030V120 9999 NCD 19/05 Q1025 BLU 10010KT CAVOK
Conditions at: EHEH (EINDHOVEN RNLAFB, NL) observed 0955 UTC 18 April 2019
Temperature: 19.0°C (66°F)
Dewpoint: 5.0°C (41°F) [RH = 40%]
Pressure (altimeter): 30.27 inches Hg (1025.0 mb)
Winds: from the E (80 degrees) at 12 MPH (10 knots; 5.1 m/s)
Visibility: 6 or more miles (10+ km)
Ceiling: at least 12,000 feet AGL
Clouds: sky clear below 12,000 feet AGL
Weather: no significant weather observed at this time

METAR text: EHEH 180925Z AUTO 09009KT 050V160 9999 NCD 18/05 Q1025 BLU 10010KT CAVOK
Conditions at: EHEH (EINDHOVEN RNLAFB, NL) observed 0925 UTC 18 April 2019
Temperature: 18.0°C (64°F)
Dewpoint: 5.0°C (41°F) [RH = 42%]
Pressure (altimeter): 30.27 inches Hg (1025.0 mb)
Winds: from the E (90 degrees) at 10 MPH (9 knots; 4.6 m/s)
Visibility: 6 or more miles (10+ km)
Ceiling: at least 12,000 feet AGL
Clouds: sky clear below 12,000 feet AGL
Weather: no significant weather observed at this time

METAR text: EHEH 180855Z AUTO 10008KT 060V150 9999 NCD 18/05 Q1025 BLU 10010KT CAVOK
Conditions at: EHEH (EINDHOVEN RNLAFB, NL) observed 0855 UTC 18 April 2019
Temperature: 18.0°C (64°F)
Dewpoint: 5.0°C (41°F) [RH = 42%]
Pressure (altimeter): 30.27 inches Hg (1025.0 mb)
Winds: from the E (100 degrees) at 9 MPH (8 knots; 4.1 m/s)
Visibility: 6 or more miles (10+ km)
Ceiling: at least 12,000 feet AGL
Clouds: sky clear below 12,000 feet AGL
Weather: no significant weather observed at this time

METAR text: EHEH 180825Z AUTO 11009KT 070V160 9999 NCD 17/04 Q1025 BLU 10010KT CAVOK
Conditions at: EHEH (EINDHOVEN RNLAFB, NL) observed 0825 UTC 18 April 2019
Temperature: 17.0°C (63°F)
Dewpoint: 4.0°C (39°F) [RH = 42%]
Pressure (altimeter): 30.27 inches Hg (1025.0 mb)
Winds: from the ESE (110 degrees) at 10 MPH (9 knots; 4.6 m/s)
Visibility: 6 or more miles (10+ km)
Ceiling: at least 12,000 feet AGL
Clouds: sky clear below 12,000 feet AGL
Weather: no significant weather observed at this time

METAR text: EHEH 180755Z AUTO 10008KT 070V140 9999 NCD 16/05 Q1024 BLU 10010KT CAVOK
Conditions at: EHEH (EINDHOVEN RNLAFB, NL) observed 0755 UTC 18 April 2019
Temperature: 16.0°C (61°F)
Dewpoint: 5.0°C (41°F) [RH = 48%]
Pressure (altimeter): 30.24 inches Hg (1024.0 mb)
Winds: from the E (100 degrees) at 9 MPH (8 knots; 4.1 m/s)
Visibility: 6 or more miles (10+ km)
Ceiling: at least 12,000 feet AGL
Clouds: sky clear below 12,000 feet AGL
Weather: no significant weather observed at this time

METAR text: EHEH 180725Z AUTO 10009KT 010V150 9999 NCD 15/04 Q1024 BLU 10010KT CAVOK
Conditions at: EHEH (EINDHOVEN RNLAFB, NL) observed 0725 UTC 18 April 2019
Temperature: 15.0°C (59°F)
Dewpoint: 4.0°C (39°F) [RH = 48%]
Pressure (altimeter): 30.24 inches Hg (1024.0 mb)
Winds: from the E (100 degrees) at 10 MPH (9 knots; 4.6 m/s)
Visibility: 6 or more miles (10+ km)
Ceiling: at least 12,000 feet AGL
Clouds: sky clear below 12,000 feet AGL
Weather: no significant weather observed at this time

METAR text: EHEH 180655Z AUTO 10008KT 060V140 9999 NCD 14/04 Q1024 BLU 09008KT CAVOK
Conditions at: EHEH (EINDHOVEN RNLAFB, NL) observed 0655 UTC 18 April 2019
Temperature: 14.0°C (57°F)
Dewpoint: 4.0°C (39°F) [RH = 51%]
Pressure (altimeter): 30.24 inches Hg (1024.0 mb)
Winds: from the E (100 degrees) at 9 MPH (8 knots; 4.1 m/s)
Visibility: 6 or more miles (10+ km)
Ceiling: at least 12,000 feet AGL
Clouds: sky clear below 12,000 feet AGL
Weather: no significant weather observed at this time

METAR text: EHEH 180625Z AUTO 09008KT 060V130 9999 NCD 14/03 Q1024 BLU 09008KT CAVOK
Conditions at: EHEH (EINDHOVEN RNLAFB, NL) observed 0625 UTC 18 April 2019
Temperature: 14.0°C (57°F)
Dewpoint: 3.0°C (37°F) [RH = 47%]
Pressure (altimeter): 30.24 inches Hg (1024.0 mb)
Winds: from the E (90 degrees) at 9 MPH (8 knots; 4.1 m/s)
Visibility: 6 or more miles (10+ km)
Ceiling: at least 12,000 feet AGL
Clouds: sky clear below 12,000 feet AGL
Weather: no significant weather observed at this time

Forecast for: EHEH (EINDHOVEN RNLAFB, NL)
Text: TAF EHEH 191137Z 1912/2018 07009KT CAVOK
Forecast period: 1200 UTC 19 April 2019 to 1800 UTC 20 April 2019
Forecast type: FROM: standard forecast or significant change
Winds: from the ENE (70 degrees) at 10 MPH (9 knots; 4.6 m/s)
Visibility: 6 or more miles 10+ km)
Ceiling: unknown
Clouds: missing
Weather: NSW  (no significant weather)